sensor_id;sensor_type;location;lat;lon;timestamp;temperature;humidity
67862;DHT22;54665;51.462;6.698;2022-12-07T00:01:29;4.90;94.85
67862;DHT22;54665;51.462;6.698;2022-12-07T00:03:57;4.90;94.80
67862;DHT22;54665;51.462;6.698;2022-12-07T00:06:29;4.88;94.87
67862;DHT22;54665;51.462;6.698;2022-12-07T00:08:54;4.87;94.81
67862;DHT22;54665;51.462;6.698;2022-12-07T00:11:21;4.84;94.87
67862;DHT22;54665;51.462;6.698;2022-12-07T00:13:51;4.84;95.00
67862;DHT22;54665;51.462;6.698;2022-12-07T00:16:18;4.87;94.98
67862;DHT22;54665;51.462;6.698;2022-12-07T00:18:45;4.87;94.93
67862;DHT22;54665;51.462;6.698;2022-12-07T00:21:19;4.87;94.95
67862;DHT22;54665;51.462;6.698;2022-12-07T00:23:46;4.87;95.03
67862;DHT22;54665;51.462;6.698;2022-12-07T00:26:19;4.90;95.02
67862;DHT22;54665;51.462;6.698;2022-12-07T00:28:51;4.88;94.94
67862;DHT22;54665;51.462;6.698;2022-12-07T00:31:18;4.91;94.87
67862;DHT22;54665;51.462;6.698;2022-12-07T00:33:44;4.90;94.87
67862;DHT22;54665;51.462;6.698;2022-12-07T00:36:13;4.90;94.82
67862;DHT22;54665;51.462;6.698;2022-12-07T00:38:39;4.87;94.86
67862;DHT22;54665;51.462;6.698;2022-12-07T00:41:09;4.86;94.92
67862;DHT22;54665;51.462;6.698;2022-12-07T00:43:34;4.87;95.00
67862;DHT22;54665;51.462;6.698;2022-12-07T00:45:59;4.86;95.02
67862;DHT22;54665;51.462;6.698;2022-12-07T00:48:25;4.84;94.94
67862;DHT22;54665;51.462;6.698;2022-12-07T00:50:51;4.87;94.92
67862;DHT22;54665;51.462;6.698;2022-12-07T00:53:17;4.88;94.76
67862;DHT22;54665;51.462;6.698;2022-12-07T00:55:43;4.87;94.79
67862;DHT22;54665;51.462;6.698;2022-12-07T00:58:09;4.87;94.83
67862;DHT22;54665;51.462;6.698;2022-12-07T01:00:39;4.87;94.92
67862;DHT22;54665;51.462;6.698;2022-12-07T01:03:06;4.84;94.81
67862;DHT22;54665;51.462;6.698;2022-12-07T01:05:32;4.83;94.82
67862;DHT22;54665;51.462;6.698;2022-12-07T01:07:57;4.83;94.67
67862;DHT22;54665;51.462;6.698;2022-12-07T01:10:23;4.80;94.63
67862;DHT22;54665;51.462;6.698;2022-12-07T01:12:48;4.76;94.77
67862;DHT22;54665;51.462;6.698;2022-12-07T01:15:14;4.73;94.74
67862;DHT22;54665;51.462;6.698;2022-12-07T01:17:39;4.72;94.87
67862;DHT22;54665;51.462;6.698;2022-12-07T01:20:05;4.62;94.88
67862;DHT22;54665;51.462;6.698;2022-12-07T01:22:31;4.62;95.00
67862;DHT22;54665;51.462;6.698;2022-12-07T01:24:56;4.59;95.00
67862;DHT22;54665;51.462;6.698;2022-12-07T01:27:21;4.53;95.02
67862;DHT22;54665;51.462;6.698;2022-12-07T01:29:47;4.50;95.06
67862;DHT22;54665;51.462;6.698;2022-12-07T01:32:12;4.49;95.32
67862;DHT22;54665;51.462;6.698;2022-12-07T01:34:38;4.46;95.31
67862;DHT22;54665;51.462;6.698;2022-12-07T01:37:04;4.43;95.41
67862;DHT22;54665;51.462;6.698;2022-12-07T01:39:29;4.41;95.48
67862;DHT22;54665;51.462;6.698;2022-12-07T01:41:55;4.42;95.51
67862;DHT22;54665;51.462;6.698;2022-12-07T01:46:53;4.35;95.49
67862;DHT22;54665;51.462;6.698;2022-12-07T01:49:44;4.33;95.35
67862;DHT22;54665;51.462;6.698;2022-12-07T01:52:17;4.35;95.48
67862;DHT22;54665;51.462;6.698;2022-12-07T01:54:46;4.38;95.46
67862;DHT22;54665;51.462;6.698;2022-12-07T01:57:14;4.36;95.36
67862;DHT22;54665;51.462;6.698;2022-12-07T01:59:41;4.32;95.33
67862;DHT22;54665;51.462;6.698;2022-12-07T02:02:11;4.28;95.48
67862;DHT22;54665;51.462;6.698;2022-12-07T02:04:40;4.26;95.56
67862;DHT22;54665;51.462;6.698;2022-12-07T02:07:06;4.24;95.52
67862;DHT22;54665;51.462;6.698;2022-12-07T02:09:31;4.25;95.66
67862;DHT22;54665;51.462;6.698;2022-12-07T02:11:57;4.21;95.65
67862;DHT22;54665;51.462;6.698;2022-12-07T02:14:22;4.16;95.78
67862;DHT22;54665;51.462;6.698;2022-12-07T02:17:03;4.12;95.80
67862;DHT22;54665;51.462;6.698;2022-12-07T02:20:00;4.14;95.82
67862;DHT22;54665;51.462;6.698;2022-12-07T02:23:03;4.12;95.89
67862;DHT22;54665;51.462;6.698;2022-12-07T02:25:51;4.11;95.88
67862;DHT22;54665;51.462;6.698;2022-12-07T02:31:17;4.21;95.72
67862;DHT22;54665;51.462;6.698;2022-12-07T02:33:49;4.14;95.68
67862;DHT22;54665;51.462;6.698;2022-12-07T02:36:23;4.06;95.77
67862;DHT22;54665;51.462;6.698;2022-12-07T02:41:29;3.90;95.85
67862;DHT22;54665;51.462;6.698;2022-12-07T02:43:58;3.84;96.09
67862;DHT22;54665;51.462;6.698;2022-12-07T02:46:31;3.71;96.07
67862;DHT22;54665;51.462;6.698;2022-12-07T02:48:58;3.60;96.28
67862;DHT22;54665;51.462;6.698;2022-12-07T02:51:25;3.53;96.49
67862;DHT22;54665;51.462;6.698;2022-12-07T02:53:50;3.46;96.56
67862;DHT22;54665;51.462;6.698;2022-12-07T03:07:42;3.24;97.15
67862;DHT22;54665;51.462;6.698;2022-12-07T03:15:34;3.37;97.31
67862;DHT22;54665;51.462;6.698;2022-12-07T03:18:02;3.37;97.29
67862;DHT22;54665;51.462;6.698;2022-12-07T03:20:29;3.44;97.23
67862;DHT22;54665;51.462;6.698;2022-12-07T03:22:56;3.34;97.04
67862;DHT22;54665;51.462;6.698;2022-12-07T03:25:22;3.15;96.94
67862;DHT22;54665;51.462;6.698;2022-12-07T03:27:55;3.09;97.15
67862;DHT22;54665;51.462;6.698;2022-12-07T03:30:24;2.93;97.22
67862;DHT22;54665;51.462;6.698;2022-12-07T03:33:13;2.93;97.42
67862;DHT22;54665;51.462;6.698;2022-12-07T03:35:45;2.88;97.47
67862;DHT22;54665;51.462;6.698;2022-12-07T03:38:23;2.75;97.42
67862;DHT22;54665;51.462;6.698;2022-12-07T03:40:57;2.85;97.54
67862;DHT22;54665;51.462;6.698;2022-12-07T03:43:25;3.02;97.62
67862;DHT22;54665;51.462;6.698;2022-12-07T03:48:57;3.32;97.70
67862;DHT22;54665;51.462;6.698;2022-12-07T03:51:28;3.46;97.57
67862;DHT22;54665;51.462;6.698;2022-12-07T03:54:10;3.49;97.39
67862;DHT22;54665;51.462;6.698;2022-12-07T03:56:39;3.53;97.30
67862;DHT22;54665;51.462;6.698;2022-12-07T03:59:06;3.53;97.22
67862;DHT22;54665;51.462;6.698;2022-12-07T04:01:32;3.57;97.09
67862;DHT22;54665;51.462;6.698;2022-12-07T04:03:57;3.57;97.00
67862;DHT22;54665;51.462;6.698;2022-12-07T04:06:23;3.59;96.92
67862;DHT22;54665;51.462;6.698;2022-12-07T04:08:48;3.60;96.80
67862;DHT22;54665;51.462;6.698;2022-12-07T04:11:14;3.59;96.71
67862;DHT22;54665;51.462;6.698;2022-12-07T04:13:39;3.54;96.63
67862;DHT22;54665;51.462;6.698;2022-12-07T04:16:23;3.49;96.56
67862;DHT22;54665;51.462;6.698;2022-12-07T04:18:48;3.44;96.59
67862;DHT22;54665;51.462;6.698;2022-12-07T04:21:14;3.42;96.61
67862;DHT22;54665;51.462;6.698;2022-12-07T04:23:39;3.34;96.63
67862;DHT22;54665;51.462;6.698;2022-12-07T04:26:04;3.29;96.71
67862;DHT22;54665;51.462;6.698;2022-12-07T04:28:30;3.24;96.75
67862;DHT22;54665;51.462;6.698;2022-12-07T04:30:55;3.20;96.75
67862;DHT22;54665;51.462;6.698;2022-12-07T04:33:21;3.19;96.82
67862;DHT22;54665;51.462;6.698;2022-12-07T04:35:46;3.29;96.83
67862;DHT22;54665;51.462;6.698;2022-12-07T04:38:11;3.34;96.71
67862;DHT22;54665;51.462;6.698;2022-12-07T04:40:37;3.33;96.58
67862;DHT22;54665;51.462;6.698;2022-12-07T04:43:02;3.34;96.66
67862;DHT22;54665;51.462;6.698;2022-12-07T04:45:27;3.36;96.60
67862;DHT22;54665;51.462;6.698;2022-12-07T04:47:53;3.37;96.51
67862;DHT22;54665;51.462;6.698;2022-12-07T04:50:18;3.36;96.50
67862;DHT22;54665;51.462;6.698;2022-12-07T04:52:43;3.39;96.49
67862;DHT22;54665;51.462;6.698;2022-12-07T04:55:09;3.37;96.49
67862;DHT22;54665;51.462;6.698;2022-12-07T04:57:34;3.37;96.40
67862;DHT22;54665;51.462;6.698;2022-12-07T05:00:00;3.42;96.31
67862;DHT22;54665;51.462;6.698;2022-12-07T05:02:25;3.47;96.04
67862;DHT22;54665;51.462;6.698;2022-12-07T05:04:50;3.47;96.00
67862;DHT22;54665;51.462;6.698;2022-12-07T05:07:16;3.40;95.96
67862;DHT22;54665;51.462;6.698;2022-12-07T05:09:41;3.43;95.77
67862;DHT22;54665;51.462;6.698;2022-12-07T05:12:07;3.42;95.80
67862;DHT22;54665;51.462;6.698;2022-12-07T05:14:32;3.43;95.83
67862;DHT22;54665;51.462;6.698;2022-12-07T05:16:58;3.43;95.79
67862;DHT22;54665;51.462;6.698;2022-12-07T05:19:23;3.47;95.62
67862;DHT22;54665;51.462;6.698;2022-12-07T05:21:48;3.53;95.55
67862;DHT22;54665;51.462;6.698;2022-12-07T05:24:15;3.53;95.63
67862;DHT22;54665;51.462;6.698;2022-12-07T05:26:41;3.53;95.47
67862;DHT22;54665;51.462;6.698;2022-12-07T05:29:07;3.52;95.35
67862;DHT22;54665;51.462;6.698;2022-12-07T05:31:35;3.54;95.35
67862;DHT22;54665;51.462;6.698;2022-12-07T05:34:01;3.56;95.19
67862;DHT22;54665;51.462;6.698;2022-12-07T05:36:26;3.56;94.96
67862;DHT22;54665;51.462;6.698;2022-12-07T05:38:53;3.59;94.87
67862;DHT22;54665;51.462;6.698;2022-12-07T05:41:19;3.59;95.04
67862;DHT22;54665;51.462;6.698;2022-12-07T05:44:04;3.56;95.16
67862;DHT22;54665;51.462;6.698;2022-12-07T05:46:30;3.57;95.20
67862;DHT22;54665;51.462;6.698;2022-12-07T05:48:55;3.57;95.18
67862;DHT22;54665;51.462;6.698;2022-12-07T05:51:21;3.57;95.30
67862;DHT22;54665;51.462;6.698;2022-12-07T05:53:46;3.59;95.15
67862;DHT22;54665;51.462;6.698;2022-12-07T05:56:12;3.59;95.13
67862;DHT22;54665;51.462;6.698;2022-12-07T05:58:37;3.56;95.16
67862;DHT22;54665;51.462;6.698;2022-12-07T06:01:21;3.54;95.04
67862;DHT22;54665;51.462;6.698;2022-12-07T06:03:47;3.50;95.00
67862;DHT22;54665;51.462;6.698;2022-12-07T06:06:12;3.47;95.03
67862;DHT22;54665;51.462;6.698;2022-12-07T06:08:38;3.43;95.09
67862;DHT22;54665;51.462;6.698;2022-12-07T06:11:03;3.42;95.01
67862;DHT22;54665;51.462;6.698;2022-12-07T06:13:47;3.34;95.02
67862;DHT22;54665;51.462;6.698;2022-12-07T06:16:12;3.29;95.04
67862;DHT22;54665;51.462;6.698;2022-12-07T06:18:38;3.29;95.13
67862;DHT22;54665;51.462;6.698;2022-12-07T06:21:03;3.26;95.25
67862;DHT22;54665;51.462;6.698;2022-12-07T06:23:29;3.36;95.12
67862;DHT22;54665;51.462;6.698;2022-12-07T06:25:54;3.36;95.03
67862;DHT22;54665;51.462;6.698;2022-12-07T06:28:19;3.34;95.08
67862;DHT22;54665;51.462;6.698;2022-12-07T06:30:45;3.39;95.03
67862;DHT22;54665;51.462;6.698;2022-12-07T06:33:10;3.42;95.01
67862;DHT22;54665;51.462;6.698;2022-12-07T06:35:35;3.40;94.99
67862;DHT22;54665;51.462;6.698;2022-12-07T06:38:01;3.39;95.05
67862;DHT22;54665;51.462;6.698;2022-12-07T06:40:26;3.37;95.05
67862;DHT22;54665;51.462;6.698;2022-12-07T06:42:52;3.36;95.10
67862;DHT22;54665;51.462;6.698;2022-12-07T06:45:17;3.42;94.99
67862;DHT22;54665;51.462;6.698;2022-12-07T06:47:42;3.47;94.99
67862;DHT22;54665;51.462;6.698;2022-12-07T06:50:08;3.49;94.87
67862;DHT22;54665;51.462;6.698;2022-12-07T06:52:34;3.47;94.73
67862;DHT22;54665;51.462;6.698;2022-12-07T06:54:59;3.39;94.79
67862;DHT22;54665;51.462;6.698;2022-12-07T06:57:25;3.30;95.00
67862;DHT22;54665;51.462;6.698;2022-12-07T06:59:50;3.20;95.19
67862;DHT22;54665;51.462;6.698;2022-12-07T07:02:16;3.11;95.29
67862;DHT22;54665;51.462;6.698;2022-12-07T07:04:42;2.98;95.35
67862;DHT22;54665;51.462;6.698;2022-12-07T07:07:07;2.93;95.61
67862;DHT22;54665;51.462;6.698;2022-12-07T07:09:32;2.87;95.76
67862;DHT22;54665;51.462;6.698;2022-12-07T07:11:58;2.82;95.71
67862;DHT22;54665;51.462;6.698;2022-12-07T07:14:23;2.85;95.89
67862;DHT22;54665;51.462;6.698;2022-12-07T07:16:48;2.91;96.08
67862;DHT22;54665;51.462;6.698;2022-12-07T07:19:14;2.84;96.02
67862;DHT22;54665;51.462;6.698;2022-12-07T07:21:39;2.75;95.91
67862;DHT22;54665;51.462;6.698;2022-12-07T07:24:05;2.70;96.06
67862;DHT22;54665;51.462;6.698;2022-12-07T07:26:30;2.68;96.17
67862;DHT22;54665;51.462;6.698;2022-12-07T07:28:56;2.71;96.31
67862;DHT22;54665;51.462;6.698;2022-12-07T07:31:21;2.74;96.35
67862;DHT22;54665;51.462;6.698;2022-12-07T07:33:47;2.75;96.34
67862;DHT22;54665;51.462;6.698;2022-12-07T07:36:12;2.87;96.45
67862;DHT22;54665;51.462;6.698;2022-12-07T07:38:38;2.79;96.37
67862;DHT22;54665;51.462;6.698;2022-12-07T07:41:03;2.81;96.43
67862;DHT22;54665;51.462;6.698;2022-12-07T07:43:29;2.75;96.31
67862;DHT22;54665;51.462;6.698;2022-12-07T07:45:54;2.65;96.17
67862;DHT22;54665;51.462;6.698;2022-12-07T07:48:19;2.65;96.31
67862;DHT22;54665;51.462;6.698;2022-12-07T07:50:45;2.61;96.30
67862;DHT22;54665;51.462;6.698;2022-12-07T07:53:10;2.60;96.44
67862;DHT22;54665;51.462;6.698;2022-12-07T07:55:36;2.58;96.44
67862;DHT22;54665;51.462;6.698;2022-12-07T07:58:01;2.60;96.53
67862;DHT22;54665;51.462;6.698;2022-12-07T08:00:27;2.57;96.54
67862;DHT22;54665;51.462;6.698;2022-12-07T08:02:52;2.61;96.58
67862;DHT22;54665;51.462;6.698;2022-12-07T08:05:18;2.62;96.53
67862;DHT22;54665;51.462;6.698;2022-12-07T08:07:43;2.62;96.57
67862;DHT22;54665;51.462;6.698;2022-12-07T08:10:11;2.66;96.47
67862;DHT22;54665;51.462;6.698;2022-12-07T08:12:38;2.65;96.35
67862;DHT22;54665;51.462;6.698;2022-12-07T08:15:25;2.61;96.19
67862;DHT22;54665;51.462;6.698;2022-12-07T08:17:50;2.51;96.28
67862;DHT22;54665;51.462;6.698;2022-12-07T08:20:15;2.52;96.59
67862;DHT22;54665;51.462;6.698;2022-12-07T08:22:41;2.45;96.57
67862;DHT22;54665;51.462;6.698;2022-12-07T08:25:06;2.41;96.53
67862;DHT22;54665;51.462;6.698;2022-12-07T08:27:32;2.41;96.59
67862;DHT22;54665;51.462;6.698;2022-12-07T08:29:57;2.51;96.83
67862;DHT22;54665;51.462;6.698;2022-12-07T08:32:22;2.61;96.80
67862;DHT22;54665;51.462;6.698;2022-12-07T08:34:48;2.70;96.75
67862;DHT22;54665;51.462;6.698;2022-12-07T08:37:14;2.75;96.59
67862;DHT22;54665;51.462;6.698;2022-12-07T08:39:39;2.82;96.55
67862;DHT22;54665;51.462;6.698;2022-12-07T08:42:04;2.89;96.36
67862;DHT22;54665;51.462;6.698;2022-12-07T08:44:30;2.92;96.24
67862;DHT22;54665;51.462;6.698;2022-12-07T08:47:02;3.03;96.11
67862;DHT22;54665;51.462;6.698;2022-12-07T08:49:38;3.01;95.85
67862;DHT22;54665;51.462;6.698;2022-12-07T08:52:04;3.06;95.76
67862;DHT22;54665;51.462;6.698;2022-12-07T08:54:30;3.06;95.61
67862;DHT22;54665;51.462;6.698;2022-12-07T08:56:58;3.09;95.58
67862;DHT22;54665;51.462;6.698;2022-12-07T08:59:24;3.19;95.56
67862;DHT22;54665;51.462;6.698;2022-12-07T09:01:49;3.39;95.29
67862;DHT22;54665;51.462;6.698;2022-12-07T09:04:15;3.61;94.79
67862;DHT22;54665;51.462;6.698;2022-12-07T09:06:41;3.84;94.10
67862;DHT22;54665;51.462;6.698;2022-12-07T09:09:06;4.05;93.30
67862;DHT22;54665;51.462;6.698;2022-12-07T09:11:33;4.25;93.11
67862;DHT22;54665;51.462;6.698;2022-12-07T09:13:58;4.36;93.01
67862;DHT22;54665;51.462;6.698;2022-12-07T09:16:23;4.46;92.52
67862;DHT22;54665;51.462;6.698;2022-12-07T09:18:49;4.49;92.19
67862;DHT22;54665;51.462;6.698;2022-12-07T09:21:14;4.49;91.61
67862;DHT22;54665;51.462;6.698;2022-12-07T09:23:41;4.48;91.41
67862;DHT22;54665;51.462;6.698;2022-12-07T09:26:06;4.56;91.41
67862;DHT22;54665;51.462;6.698;2022-12-07T09:28:32;4.57;90.96
67862;DHT22;54665;51.462;6.698;2022-12-07T09:30:57;4.57;90.88
67862;DHT22;54665;51.462;6.698;2022-12-07T09:33:23;4.55;90.96
67862;DHT22;54665;51.462;6.698;2022-12-07T09:35:50;4.43;91.16
67862;DHT22;54665;51.462;6.698;2022-12-07T09:38:17;4.41;90.84
67862;DHT22;54665;51.462;6.698;2022-12-07T09:40:43;4.48;90.89
67862;DHT22;54665;51.462;6.698;2022-12-07T09:43:17;4.69;90.23
67862;DHT22;54665;51.462;6.698;2022-12-07T09:45:44;4.91;89.32
67862;DHT22;54665;51.462;6.698;2022-12-07T09:48:18;4.93;89.01
67862;DHT22;54665;51.462;6.698;2022-12-07T09:50:45;5.01;88.85
67862;DHT22;54665;51.462;6.698;2022-12-07T09:53:26;5.07;88.33
67862;DHT22;54665;51.462;6.698;2022-12-07T09:55:53;5.21;88.47
67862;DHT22;54665;51.462;6.698;2022-12-07T09:58:22;5.17;87.80
67862;DHT22;54665;51.462;6.698;2022-12-07T10:00:50;5.28;87.35
67862;DHT22;54665;51.462;6.698;2022-12-07T10:03:18;5.42;87.17
67862;DHT22;54665;51.462;6.698;2022-12-07T10:05:46;5.58;86.88
67862;DHT22;54665;51.462;6.698;2022-12-07T10:08:14;5.75;86.32
67862;DHT22;54665;51.462;6.698;2022-12-07T10:10:41;5.79;85.67
67862;DHT22;54665;51.462;6.698;2022-12-07T10:13:09;5.80;85.90
67862;DHT22;54665;51.462;6.698;2022-12-07T10:15:58;5.86;85.09
67862;DHT22;54665;51.462;6.698;2022-12-07T10:18:38;6.09;85.36
67862;DHT22;54665;51.462;6.698;2022-12-07T10:21:12;6.29;84.95
67862;DHT22;54665;51.462;6.698;2022-12-07T10:26:36;6.33;83.80
67862;DHT22;54665;51.462;6.698;2022-12-07T10:29:18;6.47;84.37
67862;DHT22;54665;51.462;6.698;2022-12-07T10:31:46;6.17;84.05
67862;DHT22;54665;51.462;6.698;2022-12-07T10:36:53;6.23;84.73
67862;DHT22;54665;51.462;6.698;2022-12-07T10:39:21;6.33;84.76
67862;DHT22;54665;51.462;6.698;2022-12-07T10:42:00;6.47;84.56
67862;DHT22;54665;51.462;6.698;2022-12-07T10:44:31;6.54;83.53
67862;DHT22;54665;51.462;6.698;2022-12-07T10:47:14;6.38;83.13
67862;DHT22;54665;51.462;6.698;2022-12-07T10:52:57;6.51;83.70
67862;DHT22;54665;51.462;6.698;2022-12-07T10:58:18;6.45;83.61
67862;DHT22;54665;51.462;6.698;2022-12-07T11:01:08;6.36;83.28
67862;DHT22;54665;51.462;6.698;2022-12-07T11:06:35;6.29;82.75
67862;DHT22;54665;51.462;6.698;2022-12-07T11:16:59;6.74;81.93
67862;DHT22;54665;51.462;6.698;2022-12-07T11:19:34;6.58;82.70
67862;DHT22;54665;51.462;6.698;2022-12-07T11:24:54;6.21;83.77
67862;DHT22;54665;51.462;6.698;2022-12-07T11:30:12;6.30;83.82
67862;DHT22;54665;51.462;6.698;2022-12-07T11:38:21;6.52;82.65
67862;DHT22;54665;51.462;6.698;2022-12-07T11:40:49;6.60;82.55
67862;DHT22;54665;51.462;6.698;2022-12-07T11:43:32;6.51;82.09
67862;DHT22;54665;51.462;6.698;2022-12-07T11:46:04;6.58;82.75
67862;DHT22;54665;51.462;6.698;2022-12-07T11:51:01;6.55;82.26
67862;DHT22;54665;51.462;6.698;2022-12-07T11:53:37;6.48;82.89
67862;DHT22;54665;51.462;6.698;2022-12-07T11:56:13;6.48;82.86
67862;DHT22;54665;51.462;6.698;2022-12-07T12:03:49;6.48;83.58
67862;DHT22;54665;51.462;6.698;2022-12-07T12:06:16;6.47;83.75
67862;DHT22;54665;51.462;6.698;2022-12-07T12:08:56;6.37;83.66
67862;DHT22;54665;51.462;6.698;2022-12-07T12:14:39;6.42;83.39
67862;DHT22;54665;51.462;6.698;2022-12-07T12:19:59;6.50;82.82
67862;DHT22;54665;51.462;6.698;2022-12-07T12:22:35;6.58;83.24
67862;DHT22;54665;51.462;6.698;2022-12-07T12:25:05;6.47;82.48
67862;DHT22;54665;51.462;6.698;2022-12-07T12:27:33;6.58;82.46
67862;DHT22;54665;51.462;6.698;2022-12-07T12:30:01;6.64;81.76
67862;DHT22;54665;51.462;6.698;2022-12-07T12:32:41;6.65;81.92
67862;DHT22;54665;51.462;6.698;2022-12-07T12:37:46;6.57;82.36
67862;DHT22;54665;51.462;6.698;2022-12-07T12:42:58;6.54;82.92
67862;DHT22;54665;51.462;6.698;2022-12-07T12:45:28;6.42;82.08
67862;DHT22;54665;51.462;6.698;2022-12-07T12:53:01;6.38;83.13
67862;DHT22;54665;51.462;6.698;2022-12-07T13:00:43;6.34;83.66
67862;DHT22;54665;51.462;6.698;2022-12-07T13:03:22;6.33;83.65
67862;DHT22;54665;51.462;6.698;2022-12-07T13:08:49;6.37;83.09
67862;DHT22;54665;51.462;6.698;2022-12-07T13:11:18;6.44;83.77
67862;DHT22;54665;51.462;6.698;2022-12-07T13:13:45;6.37;82.72
67862;DHT22;54665;51.462;6.698;2022-12-07T13:18:37;6.41;82.77
67862;DHT22;54665;51.462;6.698;2022-12-07T13:26:18;6.34;82.56
67862;DHT22;54665;51.462;6.698;2022-12-07T13:28:45;6.31;82.91
67862;DHT22;54665;51.462;6.698;2022-12-07T13:31:15;6.24;83.32
67862;DHT22;54665;51.462;6.698;2022-12-07T13:33:44;6.11;83.57
67862;DHT22;54665;51.462;6.698;2022-12-07T13:36:22;6.05;84.19
67862;DHT22;54665;51.462;6.698;2022-12-07T13:41:43;5.95;84.29
67862;DHT22;54665;51.462;6.698;2022-12-07T13:44:14;5.93;84.03
67862;DHT22;54665;51.462;6.698;2022-12-07T13:46:49;5.90;84.01
67862;DHT22;54665;51.462;6.698;2022-12-07T13:49:21;5.90;84.10
67862;DHT22;54665;51.462;6.698;2022-12-07T13:51:48;5.97;84.04
67862;DHT22;54665;51.462;6.698;2022-12-07T13:54:14;6.00;83.97
67862;DHT22;54665;51.462;6.698;2022-12-07T13:56:40;6.03;83.65
67862;DHT22;54665;51.462;6.698;2022-12-07T13:59:14;6.05;83.38
67862;DHT22;54665;51.462;6.698;2022-12-07T14:01:40;6.09;83.35
67862;DHT22;54665;51.462;6.698;2022-12-07T14:04:28;6.09;83.31
67862;DHT22;54665;51.462;6.698;2022-12-07T14:06:54;6.07;83.38
67862;DHT22;54665;51.462;6.698;2022-12-07T14:09:22;6.03;83.39
67862;DHT22;54665;51.462;6.698;2022-12-07T14:11:50;5.90;83.43
67862;DHT22;54665;51.462;6.698;2022-12-07T14:14:20;5.73;83.93
67862;DHT22;54665;51.462;6.698;2022-12-07T14:16:56;5.54;84.69
67862;DHT22;54665;51.462;6.698;2022-12-07T14:19:41;5.38;85.15
67862;DHT22;54665;51.462;6.698;2022-12-07T14:22:09;5.25;86.03
67862;DHT22;54665;51.462;6.698;2022-12-07T14:24:43;5.18;86.38
67862;DHT22;54665;51.462;6.698;2022-12-07T14:27:23;5.08;86.70
67862;DHT22;54665;51.462;6.698;2022-12-07T14:29:51;5.01;86.96
67862;DHT22;54665;51.462;6.698;2022-12-07T14:32:23;5.04;87.14
67862;DHT22;54665;51.462;6.698;2022-12-07T14:35:22;5.00;87.00
67862;DHT22;54665;51.462;6.698;2022-12-07T14:37:49;4.83;87.50
67862;DHT22;54665;51.462;6.698;2022-12-07T14:40:23;4.76;88.07
67862;DHT22;54665;51.462;6.698;2022-12-07T14:42:51;4.74;87.98
67862;DHT22;54665;51.462;6.698;2022-12-07T14:45:21;4.53;88.33
67862;DHT22;54665;51.462;6.698;2022-12-07T14:47:46;4.52;88.64
67862;DHT22;54665;51.462;6.698;2022-12-07T14:50:14;4.41;88.87
67862;DHT22;54665;51.462;6.698;2022-12-07T14:52:42;4.45;89.17
67862;DHT22;54665;51.462;6.698;2022-12-07T14:55:13;4.39;89.18
67862;DHT22;54665;51.462;6.698;2022-12-07T14:57:39;4.25;89.41
67862;DHT22;54665;51.462;6.698;2022-12-07T15:00:05;4.11;89.75
67862;DHT22;54665;51.462;6.698;2022-12-07T15:02:31;4.12;89.71
67862;DHT22;54665;51.462;6.698;2022-12-07T15:04:57;3.97;90.04
67862;DHT22;54665;51.462;6.698;2022-12-07T15:07:22;4.01;90.66
67862;DHT22;54665;51.462;6.698;2022-12-07T15:09:49;3.90;90.51
67862;DHT22;54665;51.462;6.698;2022-12-07T15:12:14;3.74;90.79
67862;DHT22;54665;51.462;6.698;2022-12-07T15:14:40;3.71;91.44
67862;DHT22;54665;51.462;6.698;2022-12-07T15:17:06;3.71;91.63
67862;DHT22;54665;51.462;6.698;2022-12-07T15:19:31;3.56;91.59
67862;DHT22;54665;51.462;6.698;2022-12-07T15:21:58;3.50;92.04
67862;DHT22;54665;51.462;6.698;2022-12-07T15:24:25;3.47;92.68
67862;DHT22;54665;51.462;6.698;2022-12-07T15:26:53;3.43;92.73
67862;DHT22;54665;51.462;6.698;2022-12-07T15:29:19;3.39;92.54
67862;DHT22;54665;51.462;6.698;2022-12-07T15:31:48;3.34;92.84
67862;DHT22;54665;51.462;6.698;2022-12-07T15:34:13;3.42;93.04
67862;DHT22;54665;51.462;6.698;2022-12-07T15:36:39;3.44;93.17
67862;DHT22;54665;51.462;6.698;2022-12-07T15:39:04;3.39;92.85
67862;DHT22;54665;51.462;6.698;2022-12-07T15:41:30;3.44;93.18
67862;DHT22;54665;51.462;6.698;2022-12-07T15:43:55;3.50;93.25
67862;DHT22;54665;51.462;6.698;2022-12-07T15:46:40;3.56;93.45
67862;DHT22;54665;51.462;6.698;2022-12-07T15:49:14;3.64;93.42
67862;DHT22;54665;51.462;6.698;2022-12-07T15:51:40;3.66;93.36
67862;DHT22;54665;51.462;6.698;2022-12-07T15:54:06;3.75;93.23
67862;DHT22;54665;51.462;6.698;2022-12-07T15:56:32;3.84;93.03
67862;DHT22;54665;51.462;6.698;2022-12-07T15:58:57;3.90;92.86
67862;DHT22;54665;51.462;6.698;2022-12-07T16:01:23;3.99;92.24
67862;DHT22;54665;51.462;6.698;2022-12-07T16:03:48;4.05;91.92
67862;DHT22;54665;51.462;6.698;2022-12-07T16:06:16;4.11;91.63
67862;DHT22;54665;51.462;6.698;2022-12-07T16:08:43;4.16;90.98
67862;DHT22;54665;51.462;6.698;2022-12-07T16:11:09;4.25;90.30
67862;DHT22;54665;51.462;6.698;2022-12-07T16:13:34;4.28;90.01
67862;DHT22;54665;51.462;6.698;2022-12-07T16:16:04;4.33;89.79
67862;DHT22;54665;51.462;6.698;2022-12-07T16:18:30;4.36;89.14
67862;DHT22;54665;51.462;6.698;2022-12-07T16:20:55;4.39;89.16
67862;DHT22;54665;51.462;6.698;2022-12-07T16:23:21;4.42;88.70
67862;DHT22;54665;51.462;6.698;2022-12-07T16:25:46;4.41;88.38
67862;DHT22;54665;51.462;6.698;2022-12-07T16:28:12;4.45;88.58
67862;DHT22;54665;51.462;6.698;2022-12-07T16:30:37;4.48;88.28
67862;DHT22;54665;51.462;6.698;2022-12-07T16:33:02;4.48;88.03
67862;DHT22;54665;51.462;6.698;2022-12-07T16:35:28;4.53;87.79
67862;DHT22;54665;51.462;6.698;2022-12-07T16:37:53;4.56;87.63
67862;DHT22;54665;51.462;6.698;2022-12-07T16:40:19;4.57;87.36
67862;DHT22;54665;51.462;6.698;2022-12-07T16:42:44;4.56;87.67
67862;DHT22;54665;51.462;6.698;2022-12-07T16:45:09;4.50;87.71
67862;DHT22;54665;51.462;6.698;2022-12-07T16:47:39;4.49;88.04
67862;DHT22;54665;51.462;6.698;2022-12-07T16:50:05;4.48;87.92
67862;DHT22;54665;51.462;6.698;2022-12-07T16:52:33;4.52;88.10
67862;DHT22;54665;51.462;6.698;2022-12-07T16:54:58;4.55;87.86
67862;DHT22;54665;51.462;6.698;2022-12-07T16:57:23;4.56;88.07
67862;DHT22;54665;51.462;6.698;2022-12-07T16:59:49;4.57;88.08
67862;DHT22;54665;51.462;6.698;2022-12-07T17:02:15;4.62;87.95
67862;DHT22;54665;51.462;6.698;2022-12-07T17:04:40;4.69;87.94
67862;DHT22;54665;51.462;6.698;2022-12-07T17:07:07;4.74;87.13
67862;DHT22;54665;51.462;6.698;2022-12-07T17:09:33;4.72;87.35
67862;DHT22;54665;51.462;6.698;2022-12-07T17:12:00;4.72;87.39
67862;DHT22;54665;51.462;6.698;2022-12-07T17:14:26;4.72;87.39
67862;DHT22;54665;51.462;6.698;2022-12-07T17:17:10;4.63;87.55
67862;DHT22;54665;51.462;6.698;2022-12-07T17:19:35;4.56;88.01
67862;DHT22;54665;51.462;6.698;2022-12-07T17:22:01;4.50;88.23
67862;DHT22;54665;51.462;6.698;2022-12-07T17:24:26;4.49;88.39
67862;DHT22;54665;51.462;6.698;2022-12-07T17:26:51;4.53;88.34
67862;DHT22;54665;51.462;6.698;2022-12-07T17:29:18;4.56;88.03
67862;DHT22;54665;51.462;6.698;2022-12-07T17:31:44;4.55;87.96
67862;DHT22;54665;51.462;6.698;2022-12-07T17:34:10;4.59;87.47
67862;DHT22;54665;51.462;6.698;2022-12-07T17:36:36;4.56;87.61